Time;durP1;ratioP1;P1;durP2;ratioP2;P2;SDS_P1;SDS_P2;PMS_P1;PMS_P2;Temp;Humidity;BMP_temperature;BMP_pressure;BME280_temperature;BME280_humidity;BME280_pressure;Samples;Min_cycle;Max_cycle;Signal;HPM_P1;HPM_P2
2022/12/09 00:01:03;;;;;;;1.98;0.57;;;;;;;;;;6131026;23;20020;-51
2022/12/09 00:03:30;;;;;;;2.67;0.90;;;;;;;;;;6138129;23;20020;-51
2022/12/09 00:05:56;;;;;;;1.35;0.40;;;;;;;;;;6155359;23;20021;-50
2022/12/09 00:08:23;;;;;;;1.73;0.65;;;;;;;;;;6164115;23;20526;-53
2022/12/09 00:10:49;;;;;;;0.97;0.27;;;;;;;;;;6159455;23;20360;-53
2022/12/09 00:13:19;;;;;;;2.25;0.82;;;;;;;;;;6165750;23;20029;-53
2022/12/09 00:15:47;;;;;;;1.50;0.47;;;;;;;;;;6156373;23;20021;-52
2022/12/09 00:18:14;;;;;;;1.73;0.32;;;;;;;;;;6164911;23;20017;-53
2022/12/09 00:20:40;;;;;;;3.05;1.23;;;;;;;;;;6158272;23;20044;-51
2022/12/09 00:23:07;;;;;;;1.83;0.83;;;;;;;;;;6163322;23;20048;-49
2022/12/09 00:25:33;;;;;;;1.02;0.32;;;;;;;;;;6158863;23;20021;-48
2022/12/09 00:28:00;;;;;;;4.65;0.77;;;;;;;;;;6157959;23;20429;-49
2022/12/09 00:30:26;;;;;;;1.83;0.80;;;;;;;;;;6167104;23;20380;-50
2022/12/09 00:32:54;;;;;;;0.80;0.15;;;;;;;;;;6160498;23;20017;-49
2022/12/09 00:35:22;;;;;;;2.33;0.93;;;;;;;;;;6162673;23;20021;-48
2022/12/09 00:37:48;;;;;;;1.20;0.38;;;;;;;;;;6162453;23;20040;-49
2022/12/09 00:40:15;;;;;;;2.45;1.25;;;;;;;;;;6160148;23;20017;-48
2022/12/09 00:42:42;;;;;;;1.80;0.70;;;;;;;;;;6158946;23;20028;-48
2022/12/09 00:45:10;;;;;;;2.13;0.55;;;;;;;;;;6162498;23;20348;-48
2022/12/09 00:47:36;;;;;;;2.30;0.97;;;;;;;;;;6163221;23;20017;-48
2022/12/09 00:50:05;;;;;;;1.63;0.80;;;;;;;;;;6158766;23;20017;-52
2022/12/09 00:52:31;;;;;;;5.07;0.82;;;;;;;;;;6166481;23;20025;-51
2022/12/09 00:54:58;;;;;;;0.93;0.25;;;;;;;;;;6163043;23;20013;-50
2022/12/09 00:57:25;;;;;;;2.00;0.55;;;;;;;;;;6136374;23;20464;-47
2022/12/09 00:59:51;;;;;;;2.27;0.47;;;;;;;;;;6159114;23;20083;-49
2022/12/09 01:02:18;;;;;;;2.35;0.95;;;;;;;;;;6158157;23;20456;-48
2022/12/09 01:04:45;;;;;;;1.60;0.50;;;;;;;;;;6166468;23;20025;-49
2022/12/09 01:07:12;;;;;;;3.90;1.92;;;;;;;;;;6121074;23;20029;-49
2022/12/09 01:09:39;;;;;;;1.40;0.30;;;;;;;;;;6162656;23;20013;-51
2022/12/09 01:12:05;;;;;;;3.87;0.43;;;;;;;;;;6160588;23;20587;-49
2022/12/09 01:14:35;;;;;;;0.90;0.15;;;;;;;;;;6165453;23;20092;-48
2022/12/09 01:17:02;;;;;;;2.60;1.38;;;;;;;;;;6155785;23;20025;-48
2022/12/09 01:19:28;;;;;;;1.67;0.40;;;;;;;;;;6165941;23;20417;-48
2022/12/09 01:21:55;;;;;;;1.77;0.82;;;;;;;;;;6159489;23;20555;-53
2022/12/09 01:24:23;;;;;;;2.40;0.83;;;;;;;;;;6163752;23;20028;-49
2022/12/09 01:26:49;;;;;;;1.30;0.30;;;;;;;;;;6160661;23;20013;-48
2022/12/09 01:29:16;;;;;;;1.52;0.40;;;;;;;;;;6160034;23;20237;-51
2022/12/09 01:31:42;;;;;;;1.75;0.73;;;;;;;;;;6162887;23;20024;-49
2022/12/09 01:34:09;;;;;;;1.95;0.90;;;;;;;;;;6160310;23;20087;-50
2022/12/09 01:36:35;;;;;;;1.47;0.67;;;;;;;;;;6164019;23;20494;-48
2022/12/09 01:39:02;;;;;;;1.58;0.75;;;;;;;;;;6154263;23;20049;-48
2022/12/09 01:41:30;;;;;;;3.22;0.85;;;;;;;;;;6159087;23;20017;-50
2022/12/09 01:44:09;;;;;;;11.88;1.48;;;;;;;;;;6154556;23;20025;-51
2022/12/09 01:46:36;;;;;;;1.20;0.40;;;;;;;;;;6163636;23;20017;-49
2022/12/09 01:49:02;;;;;;;2.13;0.53;;;;;;;;;;6157178;23;20025;-49
2022/12/09 01:51:29;;;;;;;4.07;1.02;;;;;;;;;;6159942;23;20024;-51
2022/12/09 01:53:56;;;;;;;5.38;1.35;;;;;;;;;;6161631;23;20630;-48
2022/12/09 01:56:25;;;;;;;1.83;0.85;;;;;;;;;;6157463;23;20072;-49
2022/12/09 01:58:53;;;;;;;3.20;0.85;;;;;;;;;;6167167;23;20433;-51
2022/12/09 02:01:20;;;;;;;2.37;0.60;;;;;;;;;;6156590;23;20028;-51
2022/12/09 02:03:47;;;;;;;3.00;1.27;;;;;;;;;;6151855;23;20036;-50
2022/12/09 02:06:14;;;;;;;2.72;1.27;;;;;;;;;;6161156;23;20017;-48
2022/12/09 02:08:41;;;;;;;2.17;0.43;;;;;;;;;;6162752;23;20020;-50
2022/12/09 02:11:12;;;;;;;1.20;0.32;;;;;;;;;;6158771;23;20448;-48
2022/12/09 02:13:43;;;;;;;1.63;0.90;;;;;;;;;;6130958;23;20025;-53
2022/12/09 02:16:17;;;;;;;1.50;0.40;;;;;;;;;;6161233;23;20024;-51
2022/12/09 02:18:47;;;;;;;0.68;0.10;;;;;;;;;;6161673;23;20024;-50
2022/12/09 02:21:16;;;;;;;2.75;1.23;;;;;;;;;;6133404;23;20048;-51
2022/12/09 02:23:46;;;;;;;1.33;0.40;;;;;;;;;;6157059;23;20017;-53
2022/12/09 02:26:17;;;;;;;1.60;0.40;;;;;;;;;;6164188;23;20013;-50
2022/12/09 02:29:04;;;;;;;3.70;1.05;;;;;;;;;;6158477;23;20013;-54
2022/12/09 02:31:41;;;;;;;2.05;1.02;;;;;;;;;;6160485;23;20463;-51
2022/12/09 02:34:12;;;;;;;3.67;2.58;;;;;;;;;;6160552;23;20023;-51
2022/12/09 02:36:43;;;;;;;3.30;0.77;;;;;;;;;;6149558;23;20017;-53
2022/12/09 02:39:10;;;;;;;3.23;0.93;;;;;;;;;;6157482;23;20027;-52
2022/12/09 02:41:39;;;;;;;1.77;0.60;;;;;;;;;;6153536;23;20017;-52
2022/12/09 02:44:08;;;;;;;1.85;0.90;;;;;;;;;;6134269;23;20347;-50
2022/12/09 02:46:35;;;;;;;2.65;0.70;;;;;;;;;;6161965;23;20396;-47
2022/12/09 02:49:02;;;;;;;1.65;0.70;;;;;;;;;;6161676;23;20017;-48
2022/12/09 02:51:31;;;;;;;2.33;0.80;;;;;;;;;;6156769;23;20047;-48
2022/12/09 02:53:59;;;;;;;1.40;0.50;;;;;;;;;;6163915;23;20025;-51
2022/12/09 02:56:27;;;;;;;1.83;0.60;;;;;;;;;;6162473;23;20099;-49
2022/12/09 02:58:54;;;;;;;1.50;0.60;;;;;;;;;;6164737;23;20017;-48
2022/12/09 03:01:21;;;;;;;1.85;0.70;;;;;;;;;;6155692;23;20676;-49
2022/12/09 03:03:48;;;;;;;2.63;0.90;;;;;;;;;;6160514;23;20021;-48
2022/12/09 03:06:16;;;;;;;9.07;2.35;;;;;;;;;;6154181;23;20040;-49
2022/12/09 03:08:47;;;;;;;1.98;0.73;;;;;;;;;;6135761;23;20020;-51
2022/12/09 03:11:15;;;;;;;2.00;0.60;;;;;;;;;;6163799;23;20356;-50
2022/12/09 03:13:46;;;;;;;2.28;1.08;;;;;;;;;;6158524;23;20021;-48
2022/12/09 03:16:14;;;;;;;1.23;0.50;;;;;;;;;;6160289;23;20016;-49
2022/12/09 03:18:46;;;;;;;1.38;0.28;;;;;;;;;;6162392;23;20209;-52
2022/12/09 03:21:14;;;;;;;4.22;1.65;;;;;;;;;;6162676;23;20347;-48
2022/12/09 03:23:42;;;;;;;1.73;0.57;;;;;;;;;;6159834;23;20024;-52
2022/12/09 03:26:12;;;;;;;2.22;0.50;;;;;;;;;;6162457;23;20447;-51
2022/12/09 03:28:41;;;;;;;2.80;1.00;;;;;;;;;;6157829;23;20020;-49
2022/12/09 03:31:13;;;;;;;1.27;0.35;;;;;;;;;;6150539;23;20903;-49
2022/12/09 03:33:41;;;;;;;2.47;1.27;;;;;;;;;;6133753;23;20045;-52
2022/12/09 03:36:09;;;;;;;2.30;0.65;;;;;;;;;;6159424;23;20013;-48
2022/12/09 03:38:37;;;;;;;1.75;0.60;;;;;;;;;;6163244;23;20159;-49
2022/12/09 03:41:07;;;;;;;3.43;1.00;;;;;;;;;;6152051;23;20013;-50
2022/12/09 03:43:37;;;;;;;3.35;0.70;;;;;;;;;;6163919;23;20436;-49
2022/12/09 03:46:04;;;;;;;3.00;1.38;;;;;;;;;;6147540;23;20448;-52
2022/12/09 03:48:31;;;;;;;1.73;0.47;;;;;;;;;;6161904;23;20063;-49
2022/12/09 03:50:59;;;;;;;2.63;0.77;;;;;;;;;;6165915;23;20017;-48
2022/12/09 03:53:29;;;;;;;1.27;0.50;;;;;;;;;;6159979;23;20352;-49
2022/12/09 03:56:00;;;;;;;1.15;0.38;;;;;;;;;;6156005;23;20090;-51
2022/12/09 03:58:27;;;;;;;4.75;1.13;;;;;;;;;;6164628;23;20020;-50
2022/12/09 04:00:55;;;;;;;2.55;0.75;;;;;;;;;;6152981;23;20013;-51
2022/12/09 04:03:22;;;;;;;1.65;0.73;;;;;;;;;;6159816;23;20743;-50
2022/12/09 04:05:48;;;;;;;3.03;0.67;;;;;;;;;;6161164;23;20038;-52
2022/12/09 04:08:15;;;;;;;1.90;0.70;;;;;;;;;;6153278;23;20020;-52
2022/12/09 04:10:41;;;;;;;3.13;1.20;;;;;;;;;;6166089;23;20022;-51
2022/12/09 04:13:08;;;;;;;1.23;0.35;;;;;;;;;;6154270;23;20017;-50
2022/12/09 04:15:34;;;;;;;3.88;1.40;;;;;;;;;;6149434;23;20013;-51
2022/12/09 04:18:02;;;;;;;1.93;0.60;;;;;;;;;;6165056;23;20346;-54
2022/12/09 04:20:32;;;;;;;3.65;1.38;;;;;;;;;;6163787;23;20020;-50
2022/12/09 04:22:59;;;;;;;1.85;0.75;;;;;;;;;;6138908;23;20028;-54
2022/12/09 04:25:26;;;;;;;4.38;0.85;;;;;;;;;;6156760;23;20079;-53
2022/12/09 04:27:52;;;;;;;2.70;1.00;;;;;;;;;;6166446;23;20017;-53
2022/12/09 04:30:19;;;;;;;2.73;1.53;;;;;;;;;;6157222;23;20020;-52
2022/12/09 04:32:46;;;;;;;2.28;0.98;;;;;;;;;;6165093;23;20468;-60
2022/12/09 04:35:14;;;;;;;2.65;0.98;;;;;;;;;;6158226;23;20021;-53
2022/12/09 04:37:40;;;;;;;2.13;0.70;;;;;;;;;;6162423;23;20076;-50
2022/12/09 04:40:07;;;;;;;2.08;0.90;;;;;;;;;;6163548;23;20024;-50
2022/12/09 04:42:34;;;;;;;5.30;0.93;;;;;;;;;;6158611;23;20036;-52
2022/12/09 04:45:01;;;;;;;6.20;2.22;;;;;;;;;;6161163;23;20017;-52
2022/12/09 04:47:28;;;;;;;1.73;0.73;;;;;;;;;;6163734;23;20101;-53
2022/12/09 04:49:54;;;;;;;1.48;0.47;;;;;;;;;;6163624;23;20017;-52
2022/12/09 04:52:22;;;;;;;1.83;0.63;;;;;;;;;;6161562;23;20312;-53
2022/12/09 04:54:49;;;;;;;2.87;1.30;;;;;;;;;;6164681;23;20067;-50
2022/12/09 04:57:15;;;;;;;1.83;0.77;;;;;;;;;;6159515;23;20462;-51
2022/12/09 04:59:42;;;;;;;2.30;1.02;;;;;;;;;;6166638;23;20386;-51
2022/12/09 05:02:08;;;;;;;0.95;0.30;;;;;;;;;;6155892;23;20013;-49
2022/12/09 05:04:35;;;;;;;1.45;0.30;;;;;;;;;;6166145;23;20072;-53
2022/12/09 05:07:01;;;;;;;2.90;1.50;;;;;;;;;;6158878;23;20076;-50
2022/12/09 05:09:29;;;;;;;1.63;0.50;;;;;;;;;;6165115;23;20064;-50
2022/12/09 05:11:56;;;;;;;2.22;0.73;;;;;;;;;;6154037;23;20048;-50
2022/12/09 05:14:23;;;;;;;3.35;1.42;;;;;;;;;;6162117;23;20021;-50
2022/12/09 05:16:49;;;;;;;4.53;1.27;;;;;;;;;;6160098;23;20021;-50
2022/12/09 05:19:16;;;;;;;3.20;1.40;;;;;;;;;;6163137;23;20009;-49
2022/12/09 05:21:46;;;;;;;4.03;0.82;;;;;;;;;;6157620;23;20036;-54
2022/12/09 05:24:13;;;;;;;4.43;2.00;;;;;;;;;;6158143;23;20439;-50
2022/12/09 05:26:40;;;;;;;1.77;0.68;;;;;;;;;;6158769;23;20021;-51
2022/12/09 05:29:07;;;;;;;1.40;0.55;;;;;;;;;;6159406;23;20387;-52
2022/12/09 05:31:33;;;;;;;2.97;1.70;;;;;;;;;;6161663;23;20025;-53
2022/12/09 05:34:00;;;;;;;2.35;0.95;;;;;;;;;;6160977;23;20063;-52
2022/12/09 05:36:27;;;;;;;2.70;1.25;;;;;;;;;;6158639;23;20013;-53
2022/12/09 05:38:54;;;;;;;1.83;0.90;;;;;;;;;;6159780;23;20593;-52
2022/12/09 05:41:21;;;;;;;3.70;1.77;;;;;;;;;;6161409;23;20040;-50
2022/12/09 05:43:49;;;;;;;3.07;1.33;;;;;;;;;;6158261;23;20504;-53
2022/12/09 05:46:16;;;;;;;3.67;1.25;;;;;;;;;;6163920;23;20485;-55
2022/12/09 05:48:43;;;;;;;2.63;1.50;;;;;;;;;;6160776;23;20013;-50
2022/12/09 05:51:11;;;;;;;1.55;0.30;;;;;;;;;;6157873;23;20602;-53
2022/12/09 05:53:37;;;;;;;2.28;0.75;;;;;;;;;;6159627;23;20017;-54
2022/12/09 05:56:04;;;;;;;1.30;0.57;;;;;;;;;;6163345;23;20233;-49
2022/12/09 05:58:31;;;;;;;1.70;0.65;;;;;;;;;;6161650;23;20357;-52
2022/12/09 06:01:04;;;;;;;2.00;0.82;;;;;;;;;;6163327;23;20025;-50
2022/12/09 06:03:30;;;;;;;3.15;1.33;;;;;;;;;;6160278;23;20020;-51
2022/12/09 06:05:57;;;;;;;2.42;0.82;;;;;;;;;;6166046;23;20024;-54
2022/12/09 06:08:23;;;;;;;2.30;1.23;;;;;;;;;;6157261;23;20013;-51
2022/12/09 06:10:51;;;;;;;2.20;0.98;;;;;;;;;;6162808;23;20017;-54
2022/12/09 06:13:17;;;;;;;4.47;1.80;;;;;;;;;;6158876;23;20032;-53
2022/12/09 06:15:44;;;;;;;1.88;0.65;;;;;;;;;;6160752;23;20119;-53
2022/12/09 06:18:12;;;;;;;1.58;0.60;;;;;;;;;;6160476;23;20099;-49
2022/12/09 06:20:40;;;;;;;4.90;0.90;;;;;;;;;;6161501;23;20020;-52
2022/12/09 06:23:10;;;;;;;8.98;0.43;;;;;;;;;;6160087;23;20040;-52
2022/12/09 06:25:36;;;;;;;2.58;1.10;;;;;;;;;;6161309;23;20040;-51
2022/12/09 06:28:03;;;;;;;2.17;0.77;;;;;;;;;;6162732;23;20307;-53
2022/12/09 06:30:30;;;;;;;4.05;1.75;;;;;;;;;;6158554;23;20032;-55
2022/12/09 06:32:57;;;;;;;3.60;1.63;;;;;;;;;;6163790;23;20153;-50
2022/12/09 06:35:24;;;;;;;2.17;0.73;;;;;;;;;;6158566;23;20017;-51
2022/12/09 06:37:51;;;;;;;2.17;1.25;;;;;;;;;;6162130;23;20395;-52
2022/12/09 06:40:20;;;;;;;3.42;1.77;;;;;;;;;;6153782;23;20075;-49
2022/12/09 06:42:49;;;;;;;3.22;1.02;;;;;;;;;;6161883;23;20381;-49
2022/12/09 06:45:15;;;;;;;3.10;1.07;;;;;;;;;;6160600;23;20025;-53
2022/12/09 06:47:42;;;;;;;4.78;1.55;;;;;;;;;;6160068;23;20025;-50
2022/12/09 06:50:09;;;;;;;2.47;0.50;;;;;;;;;;6161717;23;20066;-51
2022/12/09 06:52:37;;;;;;;2.22;0.90;;;;;;;;;;6162663;23;20071;-53
2022/12/09 06:55:04;;;;;;;4.95;1.95;;;;;;;;;;6160781;23;20444;-50
2022/12/09 06:57:30;;;;;;;2.83;1.03;;;;;;;;;;6160392;23;20132;-50
2022/12/09 06:59:56;;;;;;;1.92;1.13;;;;;;;;;;6160502;23;20013;-51
2022/12/09 07:02:23;;;;;;;3.05;1.40;;;;;;;;;;6158156;23;20460;-50
2022/12/09 07:04:53;;;;;;;1.10;0.38;;;;;;;;;;6163955;23;20021;-52
2022/12/09 07:07:21;;;;;;;3.97;1.38;;;;;;;;;;6160864;23;20458;-54
2022/12/09 07:09:49;;;;;;;2.03;1.03;;;;;;;;;;6157350;23;20073;-50
2022/12/09 07:12:15;;;;;;;2.22;0.65;;;;;;;;;;6164190;23;20024;-54
2022/12/09 07:14:42;;;;;;;1.45;0.43;;;;;;;;;;6159632;23;20017;-50
2022/12/09 07:17:14;;;;;;;1.92;0.82;;;;;;;;;;6157292;23;20013;-52
2022/12/09 07:19:41;;;;;;;5.30;2.70;;;;;;;;;;6159867;23;20017;-49
2022/12/09 07:22:07;;;;;;;3.20;1.30;;;;;;;;;;6161366;23;20515;-51
2022/12/09 07:24:37;;;;;;;4.22;1.27;;;;;;;;;;6157372;23;20124;-52
2022/12/09 07:27:06;;;;;;;4.43;1.38;;;;;;;;;;6158625;23;20476;-51
2022/12/09 07:29:33;;;;;;;2.83;1.50;;;;;;;;;;6154321;23;20041;-51
2022/12/09 07:31:59;;;;;;;2.85;1.05;;;;;;;;;;6157266;23;20457;-52
2022/12/09 07:34:26;;;;;;;6.37;0.97;;;;;;;;;;6152961;23;20017;-52
2022/12/09 07:36:53;;;;;;;1.80;0.40;;;;;;;;;;6155093;23;20405;-51
2022/12/09 07:39:20;;;;;;;4.68;2.50;;;;;;;;;;6157709;23;20044;-50
2022/12/09 07:41:50;;;;;;;3.97;0.98;;;;;;;;;;6159779;23;20021;-50
2022/12/09 07:44:18;;;;;;;2.20;0.93;;;;;;;;;;6160649;23;20029;-51
2022/12/09 07:46:47;;;;;;;3.07;1.50;;;;;;;;;;6158400;23;20384;-54
2022/12/09 07:49:13;;;;;;;3.38;1.30;;;;;;;;;;6165123;23;20440;-49
2022/12/09 07:51:40;;;;;;;3.08;1.50;;;;;;;;;;6160194;23;20017;-52
2022/12/09 07:54:07;;;;;;;6.93;1.42;;;;;;;;;;6164215;23;20510;-53
2022/12/09 07:56:33;;;;;;;3.65;1.52;;;;;;;;;;6165558;23;20032;-54
2022/12/09 07:59:00;;;;;;;5.53;1.67;;;;;;;;;;6159823;23;20092;-54
2022/12/09 08:01:29;;;;;;;3.83;0.75;;;;;;;;;;6162821;23;20037;-53
2022/12/09 08:03:56;;;;;;;5.18;2.45;;;;;;;;;;6155028;23;20017;-53
2022/12/09 08:06:23;;;;;;;1.95;0.77;;;;;;;;;;6164844;23;20495;-53
2022/12/09 08:08:50;;;;;;;3.00;0.55;;;;;;;;;;6154701;23;20013;-55
2022/12/09 08:11:18;;;;;;;7.13;1.70;;;;;;;;;;6162358;23;20017;-51
2022/12/09 08:13:45;;;;;;;2.78;1.08;;;;;;;;;;6157427;23;20017;-54
2022/12/09 08:16:12;;;;;;;2.92;0.82;;;;;;;;;;6162706;23;20017;-52
2022/12/09 08:18:40;;;;;;;3.67;1.30;;;;;;;;;;6162190;23;20021;-51
2022/12/09 08:21:08;;;;;;;2.28;1.05;;;;;;;;;;6161120;23;20009;-54
2022/12/09 08:23:35;;;;;;;4.23;1.67;;;;;;;;;;6161972;23;20020;-54
2022/12/09 08:26:05;;;;;;;2.90;1.15;;;;;;;;;;6163809;23;20424;-51
2022/12/09 08:28:32;;;;;;;1.73;0.50;;;;;;;;;;6158574;23;20089;-50
2022/12/09 08:30:58;;;;;;;2.05;0.98;;;;;;;;;;6164354;23;20080;-50
2022/12/09 08:33:25;;;;;;;5.60;1.10;;;;;;;;;;6161346;23;20301;-51
2022/12/09 08:35:53;;;;;;;2.50;1.27;;;;;;;;;;6160852;23;20055;-54
2022/12/09 08:38:19;;;;;;;5.55;2.53;;;;;;;;;;6164811;23;20036;-53
2022/12/09 08:40:46;;;;;;;5.07;0.93;;;;;;;;;;6157110;23;20025;-54
2022/12/09 08:43:13;;;;;;;4.78;1.45;;;;;;;;;;6162289;23;20228;-54
2022/12/09 08:45:40;;;;;;;1.60;0.60;;;;;;;;;;6163817;23;20360;-53
2022/12/09 08:48:07;;;;;;;4.47;1.13;;;;;;;;;;6158183;23;20149;-53
2022/12/09 08:50:34;;;;;;;4.35;1.40;;;;;;;;;;6166222;23;20064;-49
2022/12/09 08:53:02;;;;;;;2.65;0.90;;;;;;;;;;6162686;23;20092;-52
2022/12/09 08:55:28;;;;;;;3.08;1.90;;;;;;;;;;6159334;23;20392;-52
2022/12/09 08:57:55;;;;;;;2.83;0.90;;;;;;;;;;6162598;23;20128;-50
2022/12/09 09:00:22;;;;;;;4.77;3.07;;;;;;;;;;6160482;23;20029;-53
2022/12/09 09:02:48;;;;;;;2.65;1.25;;;;;;;;;;6158992;23;20025;-53
2022/12/09 09:05:15;;;;;;;1.88;0.73;;;;;;;;;;6154813;23;20052;-49
2022/12/09 09:07:41;;;;;;;1.83;0.63;;;;;;;;;;6164981;23;20028;-51
2022/12/09 09:10:10;;;;;;;2.42;0.88;;;;;;;;;;6150350;23;20433;-51
2022/12/09 09:12:36;;;;;;;2.50;0.90;;;;;;;;;;6158544;23;20025;-52
2022/12/09 09:15:03;;;;;;;7.15;1.52;;;;;;;;;;6153810;23;20017;-54
2022/12/09 09:17:29;;;;;;;3.67;0.95;;;;;;;;;;6161856;23;20440;-48
2022/12/09 09:19:58;;;;;;;2.78;1.08;;;;;;;;;;6149478;23;20366;-53
2022/12/09 09:22:25;;;;;;;3.70;1.38;;;;;;;;;;6158107;23;20025;-53
2022/12/09 09:24:52;;;;;;;4.57;2.23;;;;;;;;;;6153763;23;20936;-55
2022/12/09 09:27:24;;;;;;;3.97;1.02;;;;;;;;;;6157463;23;20721;-52
2022/12/09 09:29:50;;;;;;;3.30;1.02;;;;;;;;;;6130753;23;20021;-52
2022/12/09 09:32:17;;;;;;;2.08;1.13;;;;;;;;;;6150880;23;20027;-54
2022/12/09 09:34:47;;;;;;;1.98;0.52;;;;;;;;;;6145415;23;20100;-50
2022/12/09 09:37:13;;;;;;;2.80;1.37;;;;;;;;;;6145247;23;20482;-50
2022/12/09 09:39:40;;;;;;;2.92;1.35;;;;;;;;;;6140723;23;20582;-50
2022/12/09 09:42:06;;;;;;;4.65;1.88;;;;;;;;;;6144283;23;20098;-52
2022/12/09 09:44:36;;;;;;;4.13;1.58;;;;;;;;;;6143654;23;20071;-50
2022/12/09 09:47:11;;;;;;;2.33;0.80;;;;;;;;;;6147300;23;20542;-51
2022/12/09 09:49:42;;;;;;;3.53;1.70;;;;;;;;;;6134656;23;20023;-50
2022/12/09 09:52:11;;;;;;;2.03;0.80;;;;;;;;;;6145722;23;20013;-50
2022/12/09 09:54:37;;;;;;;2.70;1.45;;;;;;;;;;6146208;23;20529;-53
2022/12/09 09:57:10;;;;;;;2.70;1.30;;;;;;;;;;6141993;23;20021;-49
2022/12/09 09:59:41;;;;;;;4.93;1.88;;;;;;;;;;6141743;23;20021;-50
2022/12/09 10:02:15;;;;;;;2.70;1.33;;;;;;;;;;6145428;23;20017;-52
2022/12/09 10:04:47;;;;;;;2.63;1.60;;;;;;;;;;6146341;23;20017;-52
2022/12/09 10:07:18;;;;;;;3.33;1.20;;;;;;;;;;6147441;23;20128;-49
2022/12/09 10:09:48;;;;;;;4.25;2.40;;;;;;;;;;6142212;23;20237;-49
2022/12/09 10:12:18;;;;;;;4.28;1.83;;;;;;;;;;6146430;23;20032;-53
2022/12/09 10:14:50;;;;;;;5.53;1.70;;;;;;;;;;6147961;23;20024;-53
2022/12/09 10:17:21;;;;;;;2.95;1.33;;;;;;;;;;6147833;23;20017;-53
2022/12/09 10:19:49;;;;;;;3.80;1.02;;;;;;;;;;6140140;23;20574;-52
2022/12/09 10:22:18;;;;;;;3.72;2.15;;;;;;;;;;6147169;23;20452;-52
2022/12/09 10:24:47;;;;;;;5.72;2.72;;;;;;;;;;6145561;23;20013;-53
2022/12/09 10:27:16;;;;;;;2.87;1.50;;;;;;;;;;6134244;23;20850;-49
2022/12/09 10:29:53;;;;;;;1.77;0.70;;;;;;;;;;6109994;23;20691;-50
2022/12/09 10:32:21;;;;;;;3.42;0.93;;;;;;;;;;6134023;23;20021;-50
2022/12/09 10:34:48;;;;;;;3.45;1.20;;;;;;;;;;6154538;23;20384;-49
2022/12/09 10:37:23;;;;;;;3.85;2.22;;;;;;;;;;6153911;23;20021;-50
2022/12/09 10:39:51;;;;;;;3.90;2.00;;;;;;;;;;6154052;23;20017;-53
2022/12/09 10:45:07;;;;;;;5.18;2.05;;;;;;;;;;6151287;23;20020;-50
2022/12/09 10:47:33;;;;;;;4.07;1.33;;;;;;;;;;6154975;23;20407;-53
2022/12/09 10:50:00;;;;;;;5.85;2.15;;;;;;;;;;6120336;23;20665;-49
2022/12/09 10:52:28;;;;;;;2.97;1.63;;;;;;;;;;6126817;23;20028;-54
2022/12/09 10:54:55;;;;;;;4.53;1.33;;;;;;;;;;6116160;23;20531;-50
2022/12/09 10:57:23;;;;;;;2.50;1.02;;;;;;;;;;6141800;23;20017;-51
2022/12/09 10:59:58;;;;;;;16.77;2.28;;;;;;;;;;6153414;23;20023;-52
2022/12/09 11:02:26;;;;;;;5.60;1.73;;;;;;;;;;6149252;23;20439;-50
2022/12/09 11:04:53;;;;;;;3.10;1.70;;;;;;;;;;6155264;23;20025;-53
2022/12/09 11:07:21;;;;;;;2.38;0.75;;;;;;;;;;6146111;23;20025;-51
2022/12/09 11:09:48;;;;;;;5.22;2.25;;;;;;;;;;6151558;23;20017;-50
2022/12/09 11:12:16;;;;;;;3.30;1.27;;;;;;;;;;6152287;23;20475;-52
2022/12/09 11:14:49;;;;;;;3.28;1.73;;;;;;;;;;6142637;23;20396;-52
2022/12/09 11:17:16;;;;;;;2.13;1.00;;;;;;;;;;6161024;23;20443;-50
2022/12/09 11:19:45;;;;;;;2.92;1.23;;;;;;;;;;6162483;23;20021;-49
2022/12/09 11:22:13;;;;;;;4.45;2.03;;;;;;;;;;6159691;23;20017;-51
2022/12/09 11:24:40;;;;;;;4.00;0.85;;;;;;;;;;6160122;23;20448;-49
2022/12/09 11:27:17;;;;;;;4.07;1.30;;;;;;;;;;6161914;23;20458;-51
2022/12/09 11:29:44;;;;;;;9.20;1.60;;;;;;;;;;6158758;23;20017;-52
2022/12/09 11:32:14;;;;;;;2.83;1.20;;;;;;;;;;6162775;23;20049;-50
2022/12/09 11:34:46;;;;;;;5.22;1.75;;;;;;;;;;6159418;23;20024;-49
2022/12/09 11:37:14;;;;;;;3.40;1.00;;;;;;;;;;6155549;23;20017;-52
2022/12/09 11:39:40;;;;;;;4.80;1.83;;;;;;;;;;6165990;23;20021;-53
2022/12/09 11:42:22;;;;;;;4.43;2.13;;;;;;;;;;6159084;23;20426;-52
2022/12/09 11:44:52;;;;;;;4.28;1.80;;;;;;;;;;6156080;23;20457;-52
2022/12/09 11:47:22;;;;;;;5.22;2.17;;;;;;;;;;6155107;23;20044;-50
2022/12/09 11:49:52;;;;;;;3.33;1.30;;;;;;;;;;6159331;23;20615;-49
2022/12/09 11:52:27;;;;;;;1.67;0.32;;;;;;;;;;6163888;23;20021;-51
2022/12/09 11:55:15;;;;;;;8.17;1.20;;;;;;;;;;6154538;23;20024;-49
2022/12/09 11:57:45;;;;;;;1.95;0.65;;;;;;;;;;6155845;23;20057;-51
2022/12/09 12:00:22;;;;;;;2.90;0.68;;;;;;;;;;6159556;23;20604;-51
2022/12/09 12:02:52;;;;;;;2.75;1.52;;;;;;;;;;6166515;23;20848;-50
2022/12/09 12:05:21;;;;;;;6.97;1.80;;;;;;;;;;6160036;23;20024;-49
2022/12/09 12:07:52;;;;;;;3.10;1.00;;;;;;;;;;6162863;23;20064;-50
2022/12/09 12:10:23;;;;;;;1.90;0.82;;;;;;;;;;6156282;23;20017;-54
2022/12/09 12:12:55;;;;;;;4.20;0.40;;;;;;;;;;6164022;23;20532;-52
2022/12/09 12:15:26;;;;;;;2.10;0.98;;;;;;;;;;6160180;23;20400;-47
2022/12/09 12:17:54;;;;;;;2.15;0.63;;;;;;;;;;6161171;23;20020;-50
2022/12/09 12:20:23;;;;;;;3.53;1.27;;;;;;;;;;6163947;23;20673;-52
2022/12/09 12:22:59;;;;;;;2.33;0.50;;;;;;;;;;6160567;23;20100;-50
2022/12/09 12:25:37;;;;;;;3.17;1.58;;;;;;;;;;6164111;23;20047;-50
2022/12/09 12:28:28;;;;;;;1.80;0.35;;;;;;;;;;6160336;23;20555;-51
2022/12/09 12:30:58;;;;;;;2.20;0.77;;;;;;;;;;6166310;23;20017;-51
2022/12/09 12:33:39;;;;;;;2.93;1.17;;;;;;;;;;6163292;23;20025;-51
2022/12/09 12:36:10;;;;;;;1.67;0.73;;;;;;;;;;6159831;23;20602;-51
2022/12/09 12:38:46;;;;;;;1.73;0.55;;;;;;;;;;6164078;23;20017;-49
2022/12/09 12:41:16;;;;;;;1.23;0.22;;;;;;;;;;6164945;23;20376;-49
2022/12/09 12:46:43;;;;;;;1.50;0.40;;;;;;;;;;6161208;23;20024;-52
2022/12/09 12:49:25;;;;;;;1.50;0.50;;;;;;;;;;6133557;23;20025;-50
2022/12/09 12:51:57;;;;;;;3.08;1.40;;;;;;;;;;6162799;23;20364;-49
2022/12/09 12:54:29;;;;;;;1.70;0.43;;;;;;;;;;6161855;23;20377;-51
2022/12/09 12:57:00;;;;;;;1.63;0.40;;;;;;;;;;6159717;23;20487;-50
2022/12/09 12:59:35;;;;;;;1.70;0.63;;;;;;;;;;6165714;23;20136;-52
2022/12/09 13:02:07;;;;;;;1.52;0.50;;;;;;;;;;6158737;23;20444;-50
2022/12/09 13:04:39;;;;;;;1.52;0.30;;;;;;;;;;6131198;23;20021;-51
2022/12/09 13:07:07;;;;;;;1.10;0.30;;;;;;;;;;6115644;23;20612;-50
2022/12/09 13:09:38;;;;;;;0.60;0.10;;;;;;;;;;6158648;23;20063;-49
2022/12/09 13:12:11;;;;;;;1.43;0.60;;;;;;;;;;6154351;23;20448;-48
2022/12/09 13:14:40;;;;;;;1.45;0.30;;;;;;;;;;6160684;23;20021;-53
2022/12/09 13:17:08;;;;;;;1.05;0.40;;;;;;;;;;6123963;23;20367;-49
2022/12/09 13:19:37;;;;;;;1.00;0.40;;;;;;;;;;6154181;23;20021;-53
2022/12/09 13:22:04;;;;;;;1.98;0.82;;;;;;;;;;6157902;23;20025;-52
2022/12/09 13:24:33;;;;;;;2.67;0.77;;;;;;;;;;6161668;23;20017;-52
2022/12/09 13:27:04;;;;;;;2.13;0.55;;;;;;;;;;6158175;23;20012;-49
2022/12/09 13:29:34;;;;;;;0.80;0.15;;;;;;;;;;6151615;23;20024;-52
2022/12/09 13:32:05;;;;;;;1.42;0.50;;;;;;;;;;6157543;23;20449;-49
2022/12/09 13:34:37;;;;;;;1.67;0.45;;;;;;;;;;6154529;23;20101;-49
2022/12/09 13:37:04;;;;;;;1.93;0.40;;;;;;;;;;6157609;23;20013;-49
2022/12/09 13:39:57;;;;;;;0.90;0.20;;;;;;;;;;6161118;23;20075;-50
2022/12/09 13:42:55;;;;;;;1.42;0.38;;;;;;;;;;6125471;23;20028;-48
2022/12/09 13:45:25;;;;;;;1.67;0.45;;;;;;;;;;6165185;23;20053;-49
2022/12/09 13:47:53;;;;;;;1.77;0.30;;;;;;;;;;6155226;23;20071;-50
2022/12/09 13:50:24;;;;;;;1.30;0.27;;;;;;;;;;6160383;23;20039;-51
2022/12/09 13:52:52;;;;;;;1.50;0.43;;;;;;;;;;6162796;23;20040;-51
2022/12/09 13:55:26;;;;;;;2.22;0.50;;;;;;;;;;6158749;23;20424;-48
2022/12/09 13:57:59;;;;;;;1.30;0.30;;;;;;;;;;6164172;23;20025;-49
2022/12/09 14:00:26;;;;;;;2.00;1.20;;;;;;;;;;6150443;23;20872;-50
2022/12/09 14:02:55;;;;;;;1.10;0.20;;;;;;;;;;6158407;23;20017;-47
2022/12/09 14:05:23;;;;;;;1.52;0.20;;;;;;;;;;6150368;23;20699;-48
2022/12/09 14:07:53;;;;;;;1.35;0.40;;;;;;;;;;6158952;23;20024;-49
2022/12/09 14:10:39;;;;;;;2.78;0.45;;;;;;;;;;6154106;23;20017;-49
2022/12/09 14:13:20;;;;;;;1.10;0.30;;;;;;;;;;6148661;23;20367;-50
2022/12/09 14:16:08;;;;;;;0.90;0.13;;;;;;;;;;6131158;23;20039;-50
2022/12/09 14:18:35;;;;;;;2.78;0.55;;;;;;;;;;6158282;23;20036;-48
2022/12/09 14:36:51;;;;;;;1.42;0.20;;;;;;;;;;6260553;22;21622;-53
2022/12/09 14:39:25;;;;;;;1.20;0.30;;;;;;;;;;6256248;22;20055;-51
2022/12/09 14:41:54;;;;;;;1.23;0.33;;;;;;;;;;6255670;22;20026;-50
2022/12/09 14:44:24;;;;;;;1.10;0.10;;;;;;;;;;6234397;22;20016;-52
2022/12/09 14:46:51;;;;;;;1.08;0.20;;;;;;;;;;6257666;22;20043;-52
2022/12/09 14:49:18;;;;;;;0.90;0.10;;;;;;;;;;6261657;22;20106;-48
2022/12/09 14:51:46;;;;;;;0.93;0.10;;;;;;;;;;6252454;22;20485;-52
2022/12/09 14:54:15;;;;;;;1.73;0.53;;;;;;;;;;6231388;22;20027;-49
2022/12/09 14:56:45;;;;;;;2.85;0.77;;;;;;;;;;6260442;22;20015;-50
2022/12/09 14:59:16;;;;;;;1.23;0.30;;;;;;;;;;6222331;22;20023;-48
2022/12/09 15:01:49;;;;;;;1.05;0.17;;;;;;;;;;6255354;22;20100;-52
2022/12/09 15:04:22;;;;;;;1.10;0.28;;;;;;;;;;6261051;22;20011;-49
2022/12/09 15:06:48;;;;;;;1.47;0.30;;;;;;;;;;6255455;22;20088;-48
2022/12/09 15:09:21;;;;;;;1.05;0.20;;;;;;;;;;6259645;22;20019;-52
2022/12/09 15:11:47;;;;;;;1.38;0.40;;;;;;;;;;6251575;22;20022;-47
2022/12/09 15:14:29;;;;;;;1.50;0.40;;;;;;;;;;6255035;22;20316;-50